Terminal Aerodrome Forecast
Issued by NWS

Home | Current Version | Previous Version | Text Only | Print | Product List | Glossary On
Versions: 1 2 3 4 5 6 7 8 9 10 11 12 13 14 15 16 17
671
FTUS43 KFGF 272320
TAFBJI
TAF
KBJI 272320Z 2800/2824 31010KT P6SM OVC018
      TEMPO 2800/2804 OVC022
     FM280600 31009KT P6SM OVC009
     FM281500 31009KT P6SM SCT015
     FM282300 33008KT P6SM FEW130=

USA.gov is the U.S. government's official web portal to all federal, state and local government web resources and services.